Woodland, Iowa
Current Conditions -  °F | °C
As of 11:53 AM on Saturday 25 Oct 2014 (Local Time) from KLWD Reporting Station
Clear Clear  
Wind Chill: 68°   Ceiling: Unl
Heat Index: 68°   Visibility: 10mi
Dew Point: 46°   Wind: 9mph
Humidity: 45%   Direction: 60°ENE
Pressure: 30.1"   Gusts: NA
Location:  40.7175°N, 93.6143°W
Report Text: KLWD 251653Z AUTO 06008KT 10SM CLR 20/08 A3010 RMK AO2 SLP190 T02000078
Loading
Personal Weather Stations






























Interactive Weather Map
Tropical Storm Tracking
New forecast layout! Learn more

10-Day Weather Forecast

Advertisements
Track Severe Weather on mobile